Time;durP1;ratioP1;P1;durP2;ratioP2;P2;SDS_P1;SDS_P2;PMS_P1;PMS_P2;Temp;Humidity;BMP_temperature;BMP_pressure;BME280_temperature;BME280_humidity;BME280_pressure;Samples;Min_cycle;Max_cycle;Signal;HPM_P1;HPM_P2
2022/01/15 00:00:40;;;;;;;34.77;6.17;;;4.70;99.90;;;;;;5044842;28;20227;-78
2022/01/15 00:03:09;;;;;;;30.10;5.73;;;4.70;99.90;;;;;;5043123;28;20224;-78
2022/01/15 00:05:38;;;;;;;27.33;6.23;;;4.60;99.90;;;;;;5050441;28;20251;-78
2022/01/15 00:08:06;;;;;;;33.00;5.67;;;4.70;99.90;;;;;;5050224;28;20357;-78
2022/01/15 00:10:33;;;;;;;32.37;6.67;;;4.60;99.90;;;;;;5048133;28;20325;-78
2022/01/15 00:13:02;;;;;;;29.33;5.57;;;4.70;99.90;;;;;;5054892;28;20223;-79
2022/01/15 00:15:32;;;;;;;30.83;6.90;;;4.70;99.90;;;;;;5042416;28;20225;-77
2022/01/15 00:18:01;;;;;;;26.10;6.03;;;4.70;99.90;;;;;;5039055;28;20242;-79
2022/01/15 00:20:30;;;;;;;29.90;7.03;;;4.80;99.90;;;;;;5035406;28;20574;-78
2022/01/15 00:23:00;;;;;;;30.97;5.90;;;4.80;99.90;;;;;;5047971;28;20226;-80
2022/01/15 00:25:29;;;;;;;33.00;6.47;;;4.90;99.90;;;;;;5041754;28;20228;-77
2022/01/15 00:27:56;;;;;;;31.63;5.63;;;4.90;99.90;;;;;;5050222;28;20236;-78
2022/01/15 00:30:23;;;;;;;21.73;5.53;;;4.90;99.90;;;;;;5047673;28;20280;-78
2022/01/15 00:32:49;;;;;;;23.73;5.27;;;4.90;99.90;;;;;;5047079;28;20260;-80
2022/01/15 00:35:17;;;;;;;31.03;5.90;;;5.00;99.90;;;;;;5044789;28;20223;-77
2022/01/15 00:37:44;;;;;;;32.37;6.13;;;5.00;99.90;;;;;;5041418;28;20681;-77
2022/01/15 00:40:15;;;;;;;29.30;6.37;;;5.10;99.90;;;;;;5047489;28;20600;-79
2022/01/15 00:42:42;;;;;;;27.97;5.67;;;5.00;99.90;;;;;;5056693;28;20235;-78
2022/01/15 00:45:14;;;;;;;25.43;5.83;;;5.00;99.90;;;;;;5043071;28;20266;-78
2022/01/15 00:47:41;;;;;;;23.90;6.10;;;5.00;99.90;;;;;;5045486;28;20726;-77
2022/01/15 00:50:09;;;;;;;26.73;5.80;;;5.00;99.90;;;;;;5045629;28;20215;-77
2022/01/15 00:52:36;;;;;;;24.07;5.17;;;5.00;99.90;;;;;;5044798;28;20245;-77
2022/01/15 00:55:04;;;;;;;25.13;5.73;;;4.90;99.90;;;;;;5038193;28;20220;-77
2022/01/15 00:57:32;;;;;;;27.23;5.40;;;4.90;99.90;;;;;;5051754;28;20242;-78
2022/01/15 00:59:59;;;;;;;23.30;5.57;;;4.90;99.90;;;;;;5040955;28;20231;-77
2022/01/15 01:02:25;;;;;;;26.10;5.43;;;4.90;99.90;;;;;;5051015;28;20288;-77
2022/01/15 01:04:52;;;;;;;25.83;5.30;;;4.80;99.90;;;;;;5046103;28;20225;-78
2022/01/15 01:07:19;;;;;;;26.23;5.20;;;4.80;99.90;;;;;;5045811;28;20750;-78
2022/01/15 01:10:01;;;;;;;26.07;5.37;;;4.70;99.90;;;;;;5047801;28;20590;-78
2022/01/15 01:12:35;;;;;;;27.87;7.07;;;4.70;99.90;;;;;;5040160;28;20676;-79
2022/01/15 01:21:01;;;;;;;42.27;5.83;;;4.70;99.90;;;;;;5034869;28;20733;-78
2022/01/15 01:23:27;;;;;;;19.27;5.37;;;4.60;99.90;;;;;;5032887;28;20250;-78
2022/01/15 01:25:59;;;;;;;31.50;5.53;;;4.60;99.90;;;;;;5038621;28;20308;-78
2022/01/15 01:28:31;;;;;;;28.70;5.87;;;4.70;99.90;;;;;;5044115;28;20357;-79
2022/01/15 01:31:04;;;;;;;34.87;6.00;;;4.70;99.90;;;;;;5034463;28;20223;-78
2022/01/15 01:33:35;;;;;;;30.40;5.83;;;4.70;99.90;;;;;;5034067;28;20710;-79
2022/01/15 01:36:13;;;;;;;23.10;5.80;;;4.80;99.90;;;;;;5044667;28;20234;-78
2022/01/15 01:38:47;;;;;;;40.13;6.10;;;4.90;99.90;;;;;;5043810;28;20420;-78
2022/01/15 01:41:18;;;;;;;25.83;5.67;;;4.90;99.90;;;;;;5044514;28;20221;-79
2022/01/15 01:43:50;;;;;;;21.53;4.27;;;4.90;99.90;;;;;;5044391;28;20262;-78
2022/01/15 01:46:34;;;;;;;22.40;5.10;;;5.00;99.90;;;;;;5042680;28;20238;-77
2022/01/15 01:49:03;;;;;;;28.73;5.67;;;5.00;99.90;;;;;;5034040;28;20370;-77
2022/01/15 01:51:31;;;;;;;21.20;5.13;;;5.10;99.90;;;;;;5041533;28;20721;-77
2022/01/15 01:53:59;;;;;;;27.03;5.23;;;5.10;99.90;;;;;;5038365;28;20242;-77
2022/01/15 01:56:26;;;;;;;26.37;5.90;;;5.10;99.90;;;;;;5042805;28;21222;-77
2022/01/15 01:58:53;;;;;;;23.47;5.40;;;5.20;99.90;;;;;;5049196;28;20226;-77
2022/01/15 02:01:22;;;;;;;22.97;5.30;;;5.20;99.90;;;;;;5038683;28;20235;-77
2022/01/15 02:03:49;;;;;;;24.20;4.63;;;5.20;99.90;;;;;;5039298;28;20230;-77
2022/01/15 02:06:17;;;;;;;33.10;5.83;;;5.20;99.90;;;;;;5043300;28;20218;-77
2022/01/15 02:08:44;;;;;;;20.23;5.47;;;5.20;99.90;;;;;;5053011;28;20229;-77
2022/01/15 02:11:12;;;;;;;25.23;5.10;;;5.20;99.90;;;;;;5042644;28;20222;-77
2022/01/15 02:13:41;;;;;;;24.07;5.40;;;5.30;99.90;;;;;;5045595;28;21087;-78
2022/01/15 02:16:08;;;;;;;18.37;4.90;;;5.30;99.90;;;;;;5045986;28;20269;-77
2022/01/15 02:18:36;;;;;;;24.27;5.30;;;5.30;99.90;;;;;;5048967;28;20243;-78
2022/01/15 02:23:53;;;;;;;20.60;4.83;;;5.40;99.90;;;;;;5041751;28;20306;-78
2022/01/15 02:26:23;;;;;;;26.90;5.07;;;5.50;99.90;;;;;;5040687;28;20227;-78
2022/01/15 02:28:54;;;;;;;24.73;5.03;;;5.50;99.90;;;;;;5045180;28;20269;-79
2022/01/15 02:31:22;;;;;;;21.17;4.90;;;5.50;99.90;;;;;;5038225;28;20229;-78
2022/01/15 02:33:50;;;;;;;25.00;4.33;;;5.60;99.90;;;;;;5036463;28;20236;-78
2022/01/15 02:36:21;;;;;;;21.47;4.27;;;5.60;99.90;;;;;;5042449;28;20249;-78
2022/01/15 02:38:48;;;;;;;20.73;5.17;;;5.60;99.90;;;;;;5043799;28;20740;-78
2022/01/15 02:41:16;;;;;;;23.77;4.23;;;5.70;99.90;;;;;;5046548;28;20219;-79
2022/01/15 02:43:42;;;;;;;18.30;4.23;;;5.70;99.90;;;;;;5042771;28;20238;-78
2022/01/15 02:46:23;;;;;;;20.10;4.03;;;5.70;99.90;;;;;;5045557;28;20242;-78
2022/01/15 02:48:52;;;;;;;22.57;4.03;;;5.70;99.90;;;;;;5040761;28;20224;-79
2022/01/15 02:51:21;;;;;;;18.80;5.30;;;5.70;99.90;;;;;;5045932;28;20235;-79
2022/01/15 02:53:54;;;;;;;23.17;4.20;;;5.70;99.90;;;;;;5039549;28;20713;-78
2022/01/15 02:56:23;;;;;;;20.50;4.20;;;5.80;99.90;;;;;;5042981;28;20312;-79
2022/01/15 02:58:50;;;;;;;21.47;4.47;;;5.80;99.90;;;;;;5043527;28;20226;-79
2022/01/15 03:01:17;;;;;;;17.33;4.37;;;5.80;99.90;;;;;;5035919;28;20230;-79
2022/01/15 03:03:44;;;;;;;22.20;4.43;;;5.80;99.90;;;;;;5041648;28;20326;-78
2022/01/15 03:06:11;;;;;;;21.50;5.10;;;5.90;99.90;;;;;;5042523;28;20720;-79
2022/01/15 03:08:39;;;;;;;22.00;3.93;;;5.90;99.90;;;;;;5040082;28;20238;-78
2022/01/15 03:11:07;;;;;;;23.17;5.00;;;5.90;99.90;;;;;;5044793;28;20244;-77
2022/01/15 03:13:34;;;;;;;21.20;4.40;;;5.90;99.90;;;;;;5039096;28;20238;-79
2022/01/15 03:16:01;;;;;;;22.40;4.47;;;5.90;99.90;;;;;;5043024;28;20228;-78
2022/01/15 03:18:28;;;;;;;23.73;4.40;;;5.90;99.90;;;;;;5040221;28;20235;-78
2022/01/15 03:20:54;;;;;;;19.50;3.77;;;5.90;99.90;;;;;;5035847;28;20225;-78
2022/01/15 03:23:21;;;;;;;25.17;4.10;;;6.00;99.90;;;;;;5040787;28;20230;-79
2022/01/15 03:25:49;;;;;;;25.47;4.63;;;5.90;99.90;;;;;;5049067;28;20223;-78
2022/01/15 03:28:16;;;;;;;18.40;4.43;;;6.00;99.90;;;;;;5043567;28;20219;-77
2022/01/15 03:30:43;;;;;;;23.17;4.17;;;6.00;99.90;;;;;;5041810;28;20670;-78
2022/01/15 03:33:10;;;;;;;16.07;3.93;;;6.10;99.90;;;;;;5044810;28;20258;-78
2022/01/15 03:35:37;;;;;;;16.63;4.17;;;6.10;99.90;;;;;;5044513;28;20237;-78
2022/01/15 03:38:05;;;;;;;22.07;4.83;;;6.00;99.90;;;;;;5051983;28;20238;-78
2022/01/15 03:40:33;;;;;;;19.70;3.90;;;6.00;99.90;;;;;;5044186;28;20250;-80
2022/01/15 03:43:02;;;;;;;19.13;4.23;;;6.10;99.90;;;;;;5046323;28;20228;-79
2022/01/15 03:45:29;;;;;;;20.60;4.00;;;6.10;99.90;;;;;;5051276;28;20233;-78
2022/01/15 03:47:56;;;;;;;21.33;4.40;;;6.10;99.90;;;;;;5051742;28;20365;-78
2022/01/15 03:50:24;;;;;;;21.90;4.90;;;6.20;99.90;;;;;;5044047;28;20242;-78
2022/01/15 03:52:52;;;;;;;23.83;3.97;;;6.20;99.90;;;;;;5044264;28;20242;-80
2022/01/15 03:55:20;;;;;;;24.63;4.73;;;6.20;99.90;;;;;;5050680;28;20236;-81
2022/01/15 03:57:47;;;;;;;22.17;4.07;;;6.20;99.90;;;;;;5047868;28;20237;-79
2022/01/15 04:00:18;;;;;;;25.83;4.00;;;6.20;99.90;;;;;;5040438;28;20226;-78
2022/01/15 04:02:47;;;;;;;29.97;4.40;;;6.20;99.90;;;;;;5050411;28;20226;-79
2022/01/15 04:05:15;;;;;;;22.87;4.07;;;6.20;99.90;;;;;;5043755;28;20231;-79
2022/01/15 04:07:42;;;;;;;17.43;4.00;;;6.20;99.90;;;;;;5045738;28;20269;-77
2022/01/15 04:10:10;;;;;;;17.93;3.23;;;6.20;99.90;;;;;;5053035;28;20237;-80
2022/01/15 04:12:37;;;;;;;17.27;3.27;;;6.20;99.90;;;;;;5040048;28;20245;-78
2022/01/15 04:15:05;;;;;;;26.03;4.43;;;6.20;99.90;;;;;;5042396;28;20258;-80
2022/01/15 04:17:33;;;;;;;19.07;4.27;;;6.20;99.90;;;;;;5039250;28;20245;-78
2022/01/15 04:20:00;;;;;;;21.03;3.90;;;6.10;99.90;;;;;;5037102;28;20252;-78
2022/01/15 04:22:26;;;;;;;16.70;3.83;;;6.10;99.90;;;;;;5046201;28;20234;-78
2022/01/15 04:24:56;;;;;;;24.57;4.27;;;6.10;99.90;;;;;;5040813;28;20225;-78
2022/01/15 04:27:23;;;;;;;22.73;4.53;;;6.00;99.90;;;;;;5039073;28;20232;-78
2022/01/15 04:29:50;;;;;;;17.60;4.00;;;6.00;99.90;;;;;;5049161;28;20299;-79
2022/01/15 04:32:17;;;;;;;19.37;4.27;;;5.90;99.90;;;;;;5043425;28;20262;-78
2022/01/15 04:34:47;;;;;;;21.97;4.17;;;5.90;99.90;;;;;;5048691;28;20235;-79
2022/01/15 04:37:21;;;;;;;22.33;4.27;;;5.90;99.90;;;;;;5039013;28;20225;-78
2022/01/15 04:39:47;;;;;;;17.73;3.57;;;5.80;99.90;;;;;;5041543;28;20242;-78
2022/01/15 04:42:16;;;;;;;13.00;3.80;;;5.70;99.90;;;;;;5045436;28;20221;-79
2022/01/15 04:44:43;;;;;;;19.80;4.30;;;5.60;99.90;;;;;;5039237;28;20877;-78
2022/01/15 04:47:10;;;;;;;14.10;3.40;;;5.50;99.90;;;;;;5040154;28;20308;-78
2022/01/15 04:49:37;;;;;;;20.07;4.13;;;5.50;99.90;;;;;;5037933;28;20234;-80
2022/01/15 04:52:05;;;;;;;17.63;3.87;;;5.40;99.90;;;;;;5055469;28;20726;-79
2022/01/15 04:54:32;;;;;;;16.77;4.07;;;5.30;99.90;;;;;;5042282;28;20232;-78
2022/01/15 04:56:58;;;;;;;20.70;4.47;;;5.30;99.90;;;;;;5061060;28;20328;-78
2022/01/15 04:59:25;;;;;;;19.70;4.10;;;5.20;99.90;;;;;;5058675;28;20237;-78
2022/01/15 05:01:52;;;;;;;19.37;4.00;;;5.20;99.90;;;;;;5043871;28;20227;-78
2022/01/15 05:04:19;;;;;;;17.77;4.03;;;5.10;99.90;;;;;;5043682;28;20252;-79
2022/01/15 05:06:45;;;;;;;18.40;4.23;;;5.10;99.90;;;;;;5044936;28;20235;-80
2022/01/15 05:09:13;;;;;;;21.90;4.70;;;5.00;99.90;;;;;;5041014;28;20871;-78
2022/01/15 05:11:46;;;;;;;21.33;4.60;;;5.00;99.90;;;;;;5039235;28;20229;-78
2022/01/15 05:14:14;;;;;;;19.47;3.33;;;5.00;99.90;;;;;;5049717;28;20220;-80
2022/01/15 05:16:41;;;;;;;22.53;4.80;;;5.00;99.90;;;;;;5052289;28;20731;-80
2022/01/15 05:19:08;;;;;;;23.23;4.30;;;4.90;99.90;;;;;;5050178;28;20331;-79
2022/01/15 05:21:35;;;;;;;23.93;5.47;;;4.90;99.90;;;;;;5043982;28;20228;-78
2022/01/15 05:24:02;;;;;;;24.23;4.70;;;4.90;99.90;;;;;;5041425;28;20284;-78
2022/01/15 05:26:30;;;;;;;22.63;5.43;;;4.90;99.90;;;;;;5055605;28;20236;-78
2022/01/15 05:28:57;;;;;;;23.13;4.40;;;4.90;99.90;;;;;;5052576;28;20799;-78
2022/01/15 05:31:24;;;;;;;17.60;4.03;;;4.90;99.90;;;;;;5042121;28;20255;-78
2022/01/15 05:33:51;;;;;;;20.63;5.17;;;4.90;99.90;;;;;;5042862;28;20229;-78
2022/01/15 05:36:18;;;;;;;26.70;4.57;;;4.90;99.90;;;;;;5060147;28;20266;-78
2022/01/15 05:38:44;;;;;;;25.47;8.20;;;4.90;99.90;;;;;;5037321;28;20240;-78
2022/01/15 05:41:11;;;;;;;26.47;8.63;;;4.90;99.90;;;;;;5044323;28;20227;-79
2022/01/15 05:43:39;;;;;;;12.70;3.60;;;4.90;99.90;;;;;;5037949;28;20242;-78
2022/01/15 05:46:06;;;;;;;18.07;4.00;;;4.90;99.90;;;;;;5041210;28;20263;-78
2022/01/15 05:48:33;;;;;;;14.53;3.93;;;4.90;99.90;;;;;;5045011;28;20234;-78
2022/01/15 05:50:59;;;;;;;15.87;3.87;;;4.90;99.90;;;;;;5044054;28;20846;-79
2022/01/15 05:53:26;;;;;;;15.57;4.07;;;4.90;99.90;;;;;;5041814;28;20237;-78
2022/01/15 05:55:53;;;;;;;19.43;4.33;;;5.00;99.90;;;;;;5046621;28;20913;-77
2022/01/15 05:58:19;;;;;;;18.67;4.10;;;5.00;99.90;;;;;;5042318;28;20225;-78
2022/01/15 06:00:47;;;;;;;14.63;4.00;;;5.00;99.90;;;;;;5050254;28;20227;-81
2022/01/15 06:03:14;;;;;;;23.83;4.17;;;5.00;99.90;;;;;;5049569;28;20268;-80
2022/01/15 06:05:41;;;;;;;18.07;4.10;;;5.00;99.90;;;;;;5042942;28;20231;-79
2022/01/15 06:08:07;;;;;;;15.83;3.77;;;5.00;99.90;;;;;;5038777;28;20246;-78
2022/01/15 06:10:34;;;;;;;17.17;3.97;;;5.00;99.90;;;;;;5039280;28;20788;-78
2022/01/15 06:13:01;;;;;;;20.83;4.33;;;5.00;99.90;;;;;;5043024;28;20257;-79
2022/01/15 06:15:28;;;;;;;17.70;3.67;;;5.00;99.90;;;;;;5040605;28;20231;-79
2022/01/15 06:17:56;;;;;;;15.37;3.37;;;5.00;99.90;;;;;;5032701;28;20238;-79
2022/01/15 06:20:22;;;;;;;18.27;4.73;;;5.00;99.90;;;;;;5043349;28;20227;-78
2022/01/15 06:22:49;;;;;;;22.10;5.07;;;5.00;99.90;;;;;;5048788;28;20249;-78
2022/01/15 06:25:16;;;;;;;22.40;4.33;;;5.00;99.90;;;;;;5050002;28;20267;-82
2022/01/15 06:27:42;;;;;;;16.60;3.63;;;5.00;99.90;;;;;;5047823;28;20343;-79
2022/01/15 06:30:10;;;;;;;12.87;3.93;;;5.00;99.90;;;;;;5042578;28;20232;-79
2022/01/15 06:32:37;;;;;;;26.93;5.37;;;5.00;99.90;;;;;;5040285;28;20235;-78
2022/01/15 06:35:08;;;;;;;16.17;4.30;;;5.10;99.90;;;;;;5044847;28;20364;-81
2022/01/15 06:37:34;;;;;;;17.30;4.70;;;5.10;99.90;;;;;;5050745;28;20230;-80
2022/01/15 06:40:01;;;;;;;17.57;4.20;;;5.10;99.90;;;;;;5069776;28;20226;-81
2022/01/15 06:42:29;;;;;;;27.63;6.10;;;5.10;99.90;;;;;;5053202;28;20234;-81
2022/01/15 06:44:56;;;;;;;18.27;4.30;;;5.10;99.90;;;;;;5050808;28;20345;-80
2022/01/15 06:47:22;;;;;;;20.43;4.40;;;5.20;99.90;;;;;;5044591;28;20237;-81
2022/01/15 06:49:49;;;;;;;20.03;4.10;;;5.20;99.90;;;;;;5052106;28;20231;-80
2022/01/15 06:52:17;;;;;;;17.70;4.47;;;5.20;99.90;;;;;;5050579;28;20226;-80
2022/01/15 06:54:44;;;;;;;21.20;4.77;;;5.20;99.90;;;;;;5043755;28;20230;-80
2022/01/15 06:57:11;;;;;;;14.73;3.77;;;5.30;99.90;;;;;;5042876;28;20232;-80
2022/01/15 06:59:37;;;;;;;20.07;4.17;;;5.30;99.90;;;;;;5048925;28;20240;-80
2022/01/15 07:02:07;;;;;;;20.97;4.47;;;5.30;99.90;;;;;;5045357;28;20219;-80
2022/01/15 07:04:33;;;;;;;23.20;4.50;;;5.30;99.90;;;;;;5041384;28;20234;-79
2022/01/15 07:07:00;;;;;;;15.93;3.53;;;5.30;99.90;;;;;;5046576;28;20223;-79
2022/01/15 07:09:28;;;;;;;12.77;4.30;;;5.20;99.90;;;;;;5050014;28;20236;-79
2022/01/15 07:11:56;;;;;;;17.60;4.20;;;5.20;99.90;;;;;;5051372;28;20246;-79
2022/01/15 07:14:23;;;;;;;13.00;3.97;;;5.20;99.90;;;;;;5048750;28;20226;-79
2022/01/15 07:16:49;;;;;;;16.60;4.37;;;5.20;99.90;;;;;;5040577;28;20237;-79
2022/01/15 07:19:16;;;;;;;18.33;4.20;;;5.20;99.90;;;;;;5041977;28;20222;-79
2022/01/15 07:21:43;;;;;;;11.97;4.20;;;5.20;99.90;;;;;;5044615;28;20227;-79
2022/01/15 07:24:11;;;;;;;17.80;4.13;;;5.20;99.90;;;;;;5040305;28;20224;-79
2022/01/15 07:26:39;;;;;;;20.17;5.27;;;5.20;99.90;;;;;;5045871;28;20242;-79
2022/01/15 07:29:13;;;;;;;23.83;4.97;;;5.20;99.90;;;;;;5050880;28;20219;-80
2022/01/15 07:31:40;;;;;;;18.27;4.57;;;5.30;99.90;;;;;;5045619;28;20334;-79
2022/01/15 07:34:06;;;;;;;17.23;5.13;;;5.30;99.90;;;;;;5050281;28;20367;-79
2022/01/15 07:36:33;;;;;;;14.80;4.40;;;5.30;99.90;;;;;;5045768;28;20679;-79
2022/01/15 07:39:00;;;;;;;17.93;5.53;;;5.40;99.90;;;;;;5053173;28;20603;-79
2022/01/15 07:41:27;;;;;;;16.23;5.33;;;5.30;99.90;;;;;;5041664;28;20253;-81
2022/01/15 07:43:55;;;;;;;20.50;4.93;;;5.40;99.90;;;;;;5072489;28;20294;-79
2022/01/15 07:46:22;;;;;;;13.83;4.37;;;5.40;99.90;;;;;;5045767;28;20238;-78
2022/01/15 07:48:48;;;;;;;15.00;4.53;;;5.40;99.90;;;;;;5050391;28;20230;-81
2022/01/15 07:51:15;;;;;;;12.13;4.77;;;5.40;99.90;;;;;;5058967;28;20236;-80
2022/01/15 07:53:42;;;;;;;20.00;5.40;;;5.40;99.90;;;;;;5053732;28;20541;-80
2022/01/15 07:56:09;;;;;;;17.67;4.90;;;5.50;99.90;;;;;;5054797;28;20231;-80
2022/01/15 07:58:35;;;;;;;15.13;4.57;;;5.50;99.90;;;;;;5052216;28;20333;-80
2022/01/15 08:01:05;;;;;;;21.07;5.10;;;5.50;99.90;;;;;;5049069;28;20227;-80
2022/01/15 08:03:32;;;;;;;17.30;5.40;;;5.50;99.90;;;;;;5048283;28;20254;-81
2022/01/15 08:05:59;;;;;;;17.97;6.30;;;5.50;99.90;;;;;;5041139;28;20688;-81
2022/01/15 08:08:25;;;;;;;13.63;6.37;;;5.60;99.90;;;;;;5063720;28;20235;-80
2022/01/15 08:10:52;;;;;;;17.63;6.23;;;5.60;99.90;;;;;;5047956;28;20262;-82
2022/01/15 08:13:19;;;;;;;15.47;6.30;;;5.60;99.90;;;;;;5048737;28;20223;-80
2022/01/15 08:15:46;;;;;;;23.63;7.40;;;5.60;99.90;;;;;;5039943;28;20231;-79
2022/01/15 08:18:14;;;;;;;15.50;6.40;;;5.70;99.90;;;;;;5046111;28;20806;-80
2022/01/15 08:20:41;;;;;;;21.43;6.27;;;5.70;99.90;;;;;;5042894;28;20282;-81
2022/01/15 08:23:07;;;;;;;16.33;6.83;;;5.70;99.90;;;;;;5040882;28;20463;-79
2022/01/15 08:25:34;;;;;;;40.70;7.47;;;5.80;99.90;;;;;;5044908;28;20235;-80
2022/01/15 08:28:01;;;;;;;16.87;6.50;;;5.80;99.90;;;;;;5063961;28;20217;-80
2022/01/15 08:30:28;;;;;;;16.70;6.20;;;5.90;99.90;;;;;;5047773;28;20231;-81
2022/01/15 08:32:55;;;;;;;16.13;6.13;;;5.90;99.90;;;;;;5036934;28;20797;-80
2022/01/15 08:35:23;;;;;;;27.27;6.97;;;5.90;99.90;;;;;;5049895;28;20225;-81
2022/01/15 08:37:50;;;;;;;30.87;7.67;;;6.00;99.90;;;;;;5044478;28;20239;-82
2022/01/15 08:40:19;;;;;;;16.57;6.97;;;6.10;99.90;;;;;;5046733;28;20235;-80
2022/01/15 08:42:46;;;;;;;16.73;6.57;;;6.20;99.90;;;;;;5037416;28;20828;-81
2022/01/15 08:45:14;;;;;;;16.73;6.43;;;6.20;99.90;;;;;;5041631;28;20222;-82
2022/01/15 08:47:41;;;;;;;14.60;6.77;;;6.30;99.90;;;;;;5049904;28;20284;-82
2022/01/15 08:50:09;;;;;;;21.03;7.80;;;6.40;99.90;;;;;;5060767;28;20224;-82
2022/01/15 08:52:39;;;;;;;20.07;7.40;;;6.50;99.90;;;;;;5054717;28;20233;-82
2022/01/15 08:55:08;;;;;;;21.83;7.87;;;6.60;99.90;;;;;;5021192;28;20229;-82
2022/01/15 08:57:36;;;;;;;16.53;7.30;;;6.70;99.90;;;;;;5038079;28;20239;-81
2022/01/15 09:00:06;;;;;;;16.50;7.23;;;6.90;99.90;;;;;;5040761;28;20233;-78
2022/01/15 09:02:33;;;;;;;14.60;7.30;;;7.00;99.90;;;;;;5042579;28;20244;-77
2022/01/15 09:05:00;;;;;;;22.23;7.97;;;7.10;99.90;;;;;;5043686;28;20744;-79
2022/01/15 09:07:27;;;;;;;15.47;8.13;;;7.20;99.90;;;;;;5039196;28;20233;-78
2022/01/15 09:09:55;;;;;;;17.47;7.80;;;7.40;99.90;;;;;;5052820;28;20327;-79
2022/01/15 09:12:22;;;;;;;17.73;8.80;;;7.40;99.90;;;;;;5042013;28;20223;-79
2022/01/15 09:14:49;;;;;;;14.40;7.17;;;7.50;99.90;;;;;;5046897;28;20293;-77
2022/01/15 09:17:16;;;;;;;17.70;8.10;;;7.60;99.90;;;;;;5044496;28;20236;-79
2022/01/15 09:19:43;;;;;;;16.70;7.93;;;7.80;99.90;;;;;;5046832;28;20250;-79
2022/01/15 09:22:11;;;;;;;18.30;7.93;;;7.90;99.90;;;;;;5037167;28;20234;-79
2022/01/15 09:24:38;;;;;;;14.67;7.50;;;8.00;99.90;;;;;;5032848;28;20293;-78
2022/01/15 09:32:31;;;;;;;17.07;7.13;;;8.30;99.90;;;;;;5040022;28;20326;-79
2022/01/15 09:34:58;;;;;;;16.53;7.77;;;8.50;99.90;;;;;;5038779;28;20234;-79
2022/01/15 09:37:25;;;;;;;17.27;9.37;;;8.70;99.90;;;;;;5044938;28;20244;-79
2022/01/15 09:39:51;;;;;;;19.20;9.20;;;9.00;99.90;;;;;;5042746;28;20930;-77
2022/01/15 09:42:22;;;;;;;18.00;8.87;;;9.20;99.90;;;;;;5050412;28;20902;-78
2022/01/15 09:44:49;;;;;;;21.33;8.53;;;9.40;99.90;;;;;;5046334;28;20229;-79
2022/01/15 09:47:17;;;;;;;14.70;7.23;;;9.50;99.90;;;;;;5048589;28;20549;-79
2022/01/15 09:49:46;;;;;;;13.70;7.27;;;9.60;99.90;;;;;;5040797;28;20985;-79
2022/01/15 09:52:13;;;;;;;18.20;7.70;;;9.60;99.90;;;;;;5043446;28;20609;-78
2022/01/15 09:54:40;;;;;;;14.57;7.20;;;9.60;99.90;;;;;;5037627;28;20254;-79
2022/01/15 09:57:07;;;;;;;18.33;7.63;;;9.50;99.90;;;;;;5052525;28;20256;-79
2022/01/15 09:59:35;;;;;;;14.83;7.20;;;9.40;99.90;;;;;;5044348;28;20229;-79
2022/01/15 10:02:04;;;;;;;16.40;7.70;;;9.40;99.90;;;;;;5043366;28;20781;-79
2022/01/15 10:04:32;;;;;;;12.83;7.10;;;9.30;99.90;;;;;;5042274;28;20237;-79
2022/01/15 10:07:06;;;;;;;17.70;7.43;;;9.20;99.90;;;;;;5036867;28;20598;-80
2022/01/15 10:09:33;;;;;;;17.13;7.30;;;9.20;99.90;;;;;;5047990;28;20238;-80
2022/01/15 10:12:00;;;;;;;14.83;7.30;;;9.10;99.90;;;;;;5047893;28;20223;-79
2022/01/15 10:14:29;;;;;;;19.40;7.67;;;9.10;99.90;;;;;;5047028;28;20734;-79
2022/01/15 10:16:59;;;;;;;17.63;7.83;;;9.10;99.90;;;;;;5056319;28;20255;-79
2022/01/15 10:19:28;;;;;;;16.03;6.90;;;9.10;99.90;;;;;;5046008;28;20293;-80
2022/01/15 10:22:06;;;;;;;18.20;7.73;;;9.00;99.90;;;;;;5060603;28;20232;-79
2022/01/15 10:24:33;;;;;;;18.13;7.70;;;9.00;99.90;;;;;;5050874;28;20246;-79
2022/01/15 10:27:22;;;;;;;16.20;6.73;;;9.00;99.90;;;;;;5063475;28;21188;-80
2022/01/15 10:29:57;;;;;;;18.83;7.20;;;9.10;99.90;;;;;;5063119;28;20246;-79
2022/01/15 10:32:26;;;;;;;17.90;6.77;;;9.10;99.90;;;;;;5056608;28;20240;-80
2022/01/15 10:34:53;;;;;;;16.57;6.70;;;9.10;99.90;;;;;;5043062;28;20236;-80
2022/01/15 10:37:23;;;;;;;18.20;7.47;;;9.20;99.90;;;;;;5051202;28;20232;-80
2022/01/15 10:40:02;;;;;;;14.50;6.93;;;9.20;99.90;;;;;;5053849;28;20307;-79
2022/01/15 10:42:29;;;;;;;14.43;7.33;;;9.30;99.90;;;;;;5059738;28;20280;-80
2022/01/15 10:44:58;;;;;;;16.40;6.63;;;9.30;99.90;;;;;;5050353;28;20238;-79
2022/01/15 10:47:28;;;;;;;13.93;7.20;;;9.40;99.90;;;;;;5059031;28;20227;-79
2022/01/15 10:49:59;;;;;;;16.50;7.20;;;9.50;99.90;;;;;;5062641;28;20244;-80
2022/01/15 10:52:27;;;;;;;18.33;7.57;;;9.50;99.90;;;;;;5047915;28;20308;-79
2022/01/15 10:55:02;;;;;;;13.33;6.73;;;9.60;99.90;;;;;;5051802;28;20232;-80
2022/01/15 10:57:32;;;;;;;19.53;8.00;;;9.70;99.90;;;;;;5044337;28;20233;-80
2022/01/15 11:00:21;;;;;;;16.17;6.27;;;9.70;99.90;;;;;;5025349;28;20268;-80
2022/01/15 11:02:50;;;;;;;17.97;8.07;;;9.80;99.90;;;;;;5041508;28;20308;-80
2022/01/15 11:05:36;;;;;;;15.50;6.83;;;9.80;99.90;;;;;;5044321;28;20212;-79
2022/01/15 11:08:13;;;;;;;19.03;6.77;;;9.80;99.90;;;;;;5044830;28;20220;-80
2022/01/15 11:10:41;;;;;;;15.87;6.90;;;9.80;99.90;;;;;;5056452;28;20237;-82
2022/01/15 11:13:11;;;;;;;15.87;6.43;;;9.80;99.90;;;;;;5055118;28;20335;-82
2022/01/15 11:15:38;;;;;;;17.00;6.27;;;9.90;99.90;;;;;;5069558;28;20238;-81
2022/01/15 11:18:06;;;;;;;22.60;6.73;;;10.10;99.90;;;;;;5057956;28;20294;-82
2022/01/15 11:20:37;;;;;;;15.40;6.10;;;10.20;99.90;;;;;;5035725;28;20931;-79
2022/01/15 11:23:04;;;;;;;13.87;6.63;;;10.30;99.90;;;;;;5040150;28;20308;-79
2022/01/15 11:25:31;;;;;;;15.17;6.37;;;10.50;99.90;;;;;;5034908;28;20228;-78
2022/01/15 11:27:58;;;;;;;22.23;6.90;;;10.60;99.90;;;;;;5039715;28;20334;-78
2022/01/15 11:30:26;;;;;;;16.47;6.03;;;10.70;99.90;;;;;;5040450;28;20622;-79
2022/01/15 11:32:54;;;;;;;14.27;6.40;;;10.80;99.90;;;;;;5041034;28;20234;-78
2022/01/15 11:35:38;;;;;;;15.40;6.17;;;10.90;99.90;;;;;;5039708;28;20731;-78
2022/01/15 11:38:05;;;;;;;16.70;6.50;;;11.00;99.90;;;;;;5041547;28;20228;-79
2022/01/15 11:40:40;;;;;;;17.67;6.47;;;11.10;99.90;;;;;;5043445;28;20239;-79
2022/01/15 11:43:40;;;;;;;14.43;6.23;;;11.20;99.90;;;;;;5033796;28;20234;-78
2022/01/15 11:46:27;;;;;;;16.63;6.10;;;11.20;99.90;;;;;;5042608;28;20234;-78
2022/01/15 11:49:25;;;;;;;16.20;6.10;;;11.20;99.90;;;;;;5038162;28;20234;-79
2022/01/15 11:51:54;;;;;;;17.03;6.40;;;11.30;99.90;;;;;;5042027;28;20242;-79
2022/01/15 11:54:20;;;;;;;15.53;5.93;;;11.30;99.90;;;;;;5044006;28;20605;-78
2022/01/15 11:56:48;;;;;;;17.00;6.30;;;11.20;99.90;;;;;;5042278;28;20238;-78
2022/01/15 11:59:48;;;;;;;20.97;6.70;;;11.20;99.90;;;;;;5055480;28;20315;-79
2022/01/15 12:02:29;;;;;;;16.97;6.37;;;11.20;99.90;;;;;;5042264;28;20258;-78
2022/01/15 12:05:16;;;;;;;20.67;6.67;;;11.30;99.90;;;;;;5041785;28;20567;-79
2022/01/15 12:07:45;;;;;;;20.47;6.37;;;11.30;99.90;;;;;;5045178;28;20315;-78
2022/01/15 12:10:15;;;;;;;15.93;6.77;;;11.30;99.90;;;;;;5038076;28;20229;-78
2022/01/15 12:12:45;;;;;;;14.67;6.40;;;11.30;99.90;;;;;;5035121;28;20245;-78
2022/01/15 12:15:17;;;;;;;14.80;6.10;;;11.30;99.90;;;;;;5043407;28;20247;-78
2022/01/15 12:17:46;;;;;;;14.17;5.60;;;11.30;99.90;;;;;;5034026;28;20249;-78
2022/01/15 12:20:36;;;;;;;16.03;5.57;;;11.20;99.90;;;;;;5050228;28;20282;-78
2022/01/15 12:23:26;;;;;;;15.30;5.63;;;11.10;99.90;;;;;;5035778;28;20222;-78
2022/01/15 12:25:54;;;;;;;13.30;4.57;;;11.00;99.90;;;;;;5051467;28;20235;-78
2022/01/15 12:28:23;;;;;;;14.87;4.93;;;10.90;99.90;;;;;;5036663;28;20310;-78
2022/01/15 12:30:52;;;;;;;16.63;6.47;;;10.80;99.90;;;;;;5053093;28;20235;-78
2022/01/15 12:33:20;;;;;;;15.77;5.57;;;10.70;99.90;;;;;;5047468;28;20331;-78
2022/01/15 12:35:50;;;;;;;13.70;5.07;;;10.70;99.90;;;;;;5041853;28;20621;-78
2022/01/15 12:38:25;;;;;;;17.40;5.87;;;10.70;99.90;;;;;;5038968;28;20326;-78
2022/01/15 12:40:54;;;;;;;18.97;4.43;;;10.70;99.90;;;;;;5042712;28;20239;-78
2022/01/15 12:43:23;;;;;;;14.43;4.70;;;10.80;99.90;;;;;;5038409;28;20234;-79
2022/01/15 12:45:52;;;;;;;14.27;4.53;;;10.90;99.90;;;;;;5038976;28;20239;-78
2022/01/15 12:48:21;;;;;;;14.83;4.30;;;11.10;99.90;;;;;;5044671;28;20228;-78
2022/01/15 12:50:50;;;;;;;19.73;4.33;;;11.30;99.90;;;;;;5034957;28;20231;-78
2022/01/15 12:53:20;;;;;;;26.33;11.37;;;11.50;99.90;;;;;;5030681;28;20235;-78
2022/01/15 12:55:48;;;;;;;21.87;6.20;;;11.70;99.90;;;;;;5043504;28;20222;-78
2022/01/15 12:58:17;;;;;;;18.47;6.23;;;11.90;99.90;;;;;;5033869;28;20809;-79
2022/01/15 13:00:43;;;;;;;15.93;4.70;;;11.90;99.90;;;;;;5041156;28;20757;-79
2022/01/15 13:03:11;;;;;;;13.17;5.10;;;11.90;99.90;;;;;;5037431;28;20228;-78
2022/01/15 13:05:40;;;;;;;14.50;4.20;;;11.70;99.90;;;;;;5041566;28;20240;-78
2022/01/15 13:08:10;;;;;;;16.10;4.90;;;11.50;99.90;;;;;;5037322;28;20222;-77